sensor_id;sensor_type;location;lat;lon;timestamp;temperature;humidity
7844;DHT22;3967;48.702;9.326;2023-03-26T00:01:12;9.80;97.10
7844;DHT22;3967;48.702;9.326;2023-03-26T00:03:42;9.80;97.20
7844;DHT22;3967;48.702;9.326;2023-03-26T00:06:14;9.60;97.10
7844;DHT22;3967;48.702;9.326;2023-03-26T00:08:42;9.60;97.60
7844;DHT22;3967;48.702;9.326;2023-03-26T00:11:12;9.50;97.60
7844;DHT22;3967;48.702;9.326;2023-03-26T00:13:39;9.60;97.50
7844;DHT22;3967;48.702;9.326;2023-03-26T00:16:14;9.50;97.30
7844;DHT22;3967;48.702;9.326;2023-03-26T00:18:41;9.50;97.40
7844;DHT22;3967;48.702;9.326;2023-03-26T00:21:14;9.40;97.00
7844;DHT22;3967;48.702;9.326;2023-03-26T00:23:42;9.40;97.20
7844;DHT22;3967;48.702;9.326;2023-03-26T00:26:10;9.40;97.10
7844;DHT22;3967;48.702;9.326;2023-03-26T00:28:37;9.50;97.20
7844;DHT22;3967;48.702;9.326;2023-03-26T00:31:11;9.50;97.30
7844;DHT22;3967;48.702;9.326;2023-03-26T00:33:39;9.60;97.20
7844;DHT22;3967;48.702;9.326;2023-03-26T00:36:09;9.50;97.10
7844;DHT22;3967;48.702;9.326;2023-03-26T00:38:37;9.50;97.50
7844;DHT22;3967;48.702;9.326;2023-03-26T00:41:10;9.50;97.60
7844;DHT22;3967;48.702;9.326;2023-03-26T00:43:44;9.50;97.50
7844;DHT22;3967;48.702;9.326;2023-03-26T00:46:14;9.40;97.60
7844;DHT22;3967;48.702;9.326;2023-03-26T00:48:44;9.40;97.60
7844;DHT22;3967;48.702;9.326;2023-03-26T00:51:13;9.30;97.90
7844;DHT22;3967;48.702;9.326;2023-03-26T00:53:44;9.30;97.70
7844;DHT22;3967;48.702;9.326;2023-03-26T00:56:12;9.20;97.50
7844;DHT22;3967;48.702;9.326;2023-03-26T00:58:39;9.20;97.70
7844;DHT22;3967;48.702;9.326;2023-03-26T01:01:09;9.20;98.00
7844;DHT22;3967;48.702;9.326;2023-03-26T01:03:40;9.10;98.00
7844;DHT22;3967;48.702;9.326;2023-03-26T01:08:54;9.20;98.20
7844;DHT22;3967;48.702;9.326;2023-03-26T01:11:28;9.20;97.90
7844;DHT22;3967;48.702;9.326;2023-03-26T01:14:07;9.20;97.80
7844;DHT22;3967;48.702;9.326;2023-03-26T01:19:12;9.20;97.80
7844;DHT22;3967;48.702;9.326;2023-03-26T01:21:41;9.20;97.50
7844;DHT22;3967;48.702;9.326;2023-03-26T01:24:09;9.20;97.50
7844;DHT22;3967;48.702;9.326;2023-03-26T01:29:10;9.20;97.30
7844;DHT22;3967;48.702;9.326;2023-03-26T01:40:23;9.30;97.20
7844;DHT22;3967;48.702;9.326;2023-03-26T01:45:50;9.20;97.60
7844;DHT22;3967;48.702;9.326;2023-03-26T01:48:17;9.10;97.20
7844;DHT22;3967;48.702;9.326;2023-03-26T01:50:44;9.10;97.30
7844;DHT22;3967;48.702;9.326;2023-03-26T01:53:12;9.00;97.20
7844;DHT22;3967;48.702;9.326;2023-03-26T02:02:06;9.00;97.30
7844;DHT22;3967;48.702;9.326;2023-03-26T02:09:41;8.90;97.40
7844;DHT22;3967;48.702;9.326;2023-03-26T02:12:13;8.90;97.40
7844;DHT22;3967;48.702;9.326;2023-03-26T02:14:41;9.00;97.30
7844;DHT22;3967;48.702;9.326;2023-03-26T02:17:09;9.00;97.10
7844;DHT22;3967;48.702;9.326;2023-03-26T02:19:37;8.90;97.10
7844;DHT22;3967;48.702;9.326;2023-03-26T02:22:11;8.90;97.10
7844;DHT22;3967;48.702;9.326;2023-03-26T02:24:42;8.80;97.10
7844;DHT22;3967;48.702;9.326;2023-03-26T02:27:09;8.80;97.60
7844;DHT22;3967;48.702;9.326;2023-03-26T02:29:38;8.70;97.70
7844;DHT22;3967;48.702;9.326;2023-03-26T02:32:07;8.80;97.80
7844;DHT22;3967;48.702;9.326;2023-03-26T02:34:34;8.80;97.80
7844;DHT22;3967;48.702;9.326;2023-03-26T02:37:02;8.90;97.50
7844;DHT22;3967;48.702;9.326;2023-03-26T02:39:28;8.80;97.70
7844;DHT22;3967;48.702;9.326;2023-03-26T02:41:55;8.90;97.80
7844;DHT22;3967;48.702;9.326;2023-03-26T02:44:22;8.90;97.50
7844;DHT22;3967;48.702;9.326;2023-03-26T02:46:49;8.90;97.40
7844;DHT22;3967;48.702;9.326;2023-03-26T02:49:15;8.90;97.50
7844;DHT22;3967;48.702;9.326;2023-03-26T02:51:42;8.90;97.30
7844;DHT22;3967;48.702;9.326;2023-03-26T02:54:09;8.90;97.30
7844;DHT22;3967;48.702;9.326;2023-03-26T02:56:36;8.90;97.50
7844;DHT22;3967;48.702;9.326;2023-03-26T02:59:03;8.90;97.20
7844;DHT22;3967;48.702;9.326;2023-03-26T03:01:29;8.90;97.10
7844;DHT22;3967;48.702;9.326;2023-03-26T03:04:02;8.90;97.20
7844;DHT22;3967;48.702;9.326;2023-03-26T03:06:29;8.90;97.30
7844;DHT22;3967;48.702;9.326;2023-03-26T03:08:56;8.80;97.30
7844;DHT22;3967;48.702;9.326;2023-03-26T03:11:23;8.80;97.60
7844;DHT22;3967;48.702;9.326;2023-03-26T03:13:53;8.90;97.70
7844;DHT22;3967;48.702;9.326;2023-03-26T03:16:19;9.00;97.20
7844;DHT22;3967;48.702;9.326;2023-03-26T03:18:47;9.00;97.10
7844;DHT22;3967;48.702;9.326;2023-03-26T03:21:20;9.10;97.10
7844;DHT22;3967;48.702;9.326;2023-03-26T03:23:47;9.10;96.90
7844;DHT22;3967;48.702;9.326;2023-03-26T03:26:20;9.10;97.00
7844;DHT22;3967;48.702;9.326;2023-03-26T03:28:50;9.10;96.90
7844;DHT22;3967;48.702;9.326;2023-03-26T03:31:17;9.20;96.80
7844;DHT22;3967;48.702;9.326;2023-03-26T03:33:44;9.10;96.70
7844;DHT22;3967;48.702;9.326;2023-03-26T03:36:16;9.00;96.80
7844;DHT22;3967;48.702;9.326;2023-03-26T03:38:48;9.00;97.10
7844;DHT22;3967;48.702;9.326;2023-03-26T03:41:15;9.10;97.30
7844;DHT22;3967;48.702;9.326;2023-03-26T03:43:44;9.10;97.30
7844;DHT22;3967;48.702;9.326;2023-03-26T03:46:11;9.00;97.40
7844;DHT22;3967;48.702;9.326;2023-03-26T03:48:37;9.00;97.60
7844;DHT22;3967;48.702;9.326;2023-03-26T03:51:05;9.00;97.60
7844;DHT22;3967;48.702;9.326;2023-03-26T03:53:31;9.10;97.60
7844;DHT22;3967;48.702;9.326;2023-03-26T03:56:02;9.00;97.80
7844;DHT22;3967;48.702;9.326;2023-03-26T03:58:30;9.00;97.80
7844;DHT22;3967;48.702;9.326;2023-03-26T04:00:57;9.00;97.80
7844;DHT22;3967;48.702;9.326;2023-03-26T04:03:27;9.00;97.90
7844;DHT22;3967;48.702;9.326;2023-03-26T04:05:59;9.00;98.00
7844;DHT22;3967;48.702;9.326;2023-03-26T04:08:26;8.70;97.70
7844;DHT22;3967;48.702;9.326;2023-03-26T04:10:53;8.80;98.40
7844;DHT22;3967;48.702;9.326;2023-03-26T04:13:20;8.90;98.20
7844;DHT22;3967;48.702;9.326;2023-03-26T04:15:47;9.00;98.30
7844;DHT22;3967;48.702;9.326;2023-03-26T04:18:14;8.90;98.00
7844;DHT22;3967;48.702;9.326;2023-03-26T04:20:42;8.80;98.00
7844;DHT22;3967;48.702;9.326;2023-03-26T04:23:17;8.70;98.40
7844;DHT22;3967;48.702;9.326;2023-03-26T04:25:47;8.80;98.40
7844;DHT22;3967;48.702;9.326;2023-03-26T04:30:58;8.90;98.30
7844;DHT22;3967;48.702;9.326;2023-03-26T04:33:31;8.90;98.40
7844;DHT22;3967;48.702;9.326;2023-03-26T04:35:59;9.00;98.50
7844;DHT22;3967;48.702;9.326;2023-03-26T04:38:30;8.90;98.30
7844;DHT22;3967;48.702;9.326;2023-03-26T04:41:01;8.80;98.30
7844;DHT22;3967;48.702;9.326;2023-03-26T04:43:30;8.70;98.40
7844;DHT22;3967;48.702;9.326;2023-03-26T04:46:00;8.70;98.50
7844;DHT22;3967;48.702;9.326;2023-03-26T04:48:29;8.70;98.60
7844;DHT22;3967;48.702;9.326;2023-03-26T04:50:56;8.80;98.50
7844;DHT22;3967;48.702;9.326;2023-03-26T04:53:23;8.80;98.50
7844;DHT22;3967;48.702;9.326;2023-03-26T04:56:04;8.80;98.60
7844;DHT22;3967;48.702;9.326;2023-03-26T04:58:32;8.80;98.50
7844;DHT22;3967;48.702;9.326;2023-03-26T05:01:00;8.80;98.50
7844;DHT22;3967;48.702;9.326;2023-03-26T05:03:36;8.70;98.40
7844;DHT22;3967;48.702;9.326;2023-03-26T05:06:08;8.70;98.70
7844;DHT22;3967;48.702;9.326;2023-03-26T05:08:35;8.70;98.70
7844;DHT22;3967;48.702;9.326;2023-03-26T05:11:02;8.70;98.70
7844;DHT22;3967;48.702;9.326;2023-03-26T05:13:32;8.70;98.60
7844;DHT22;3967;48.702;9.326;2023-03-26T05:15:59;8.70;98.70
7844;DHT22;3967;48.702;9.326;2023-03-26T05:18:26;8.70;98.60
7844;DHT22;3967;48.702;9.326;2023-03-26T05:20:52;8.70;98.60
7844;DHT22;3967;48.702;9.326;2023-03-26T05:23:19;8.70;98.50
7844;DHT22;3967;48.702;9.326;2023-03-26T05:25:46;8.60;98.60
7844;DHT22;3967;48.702;9.326;2023-03-26T05:28:13;8.50;99.20
7844;DHT22;3967;48.702;9.326;2023-03-26T05:30:41;8.30;99.60
7844;DHT22;3967;48.702;9.326;2023-03-26T05:33:09;8.10;99.90
7844;DHT22;3967;48.702;9.326;2023-03-26T05:35:36;7.80;99.90
7844;DHT22;3967;48.702;9.326;2023-03-26T05:38:02;7.90;99.90
7844;DHT22;3967;48.702;9.326;2023-03-26T05:40:29;8.00;99.90
7844;DHT22;3967;48.702;9.326;2023-03-26T05:42:58;8.10;99.90
7844;DHT22;3967;48.702;9.326;2023-03-26T05:45:24;8.30;99.90
7844;DHT22;3967;48.702;9.326;2023-03-26T05:47:51;8.40;99.90
7844;DHT22;3967;48.702;9.326;2023-03-26T05:50:20;8.40;99.90
7844;DHT22;3967;48.702;9.326;2023-03-26T05:52:47;8.40;99.90
7844;DHT22;3967;48.702;9.326;2023-03-26T05:55:14;8.30;99.90
7844;DHT22;3967;48.702;9.326;2023-03-26T05:57:41;8.30;99.90
7844;DHT22;3967;48.702;9.326;2023-03-26T06:00:08;8.30;99.90
7844;DHT22;3967;48.702;9.326;2023-03-26T06:02:37;8.20;99.90
7844;DHT22;3967;48.702;9.326;2023-03-26T06:05:04;8.40;99.90
7844;DHT22;3967;48.702;9.326;2023-03-26T06:07:31;8.40;99.90
7844;DHT22;3967;48.702;9.326;2023-03-26T06:09:59;8.00;99.90
7844;DHT22;3967;48.702;9.326;2023-03-26T06:12:26;8.00;99.90
7844;DHT22;3967;48.702;9.326;2023-03-26T06:14:52;7.80;99.90
7844;DHT22;3967;48.702;9.326;2023-03-26T06:17:19;7.80;99.90
7844;DHT22;3967;48.702;9.326;2023-03-26T06:19:46;7.70;99.90
7844;DHT22;3967;48.702;9.326;2023-03-26T06:22:13;7.70;99.90
7844;DHT22;3967;48.702;9.326;2023-03-26T06:24:40;7.70;99.90
7844;DHT22;3967;48.702;9.326;2023-03-26T06:27:06;7.70;99.90
7844;DHT22;3967;48.702;9.326;2023-03-26T06:29:33;7.70;99.90
7844;DHT22;3967;48.702;9.326;2023-03-26T06:32:00;7.70;99.90
7844;DHT22;3967;48.702;9.326;2023-03-26T06:34:44;7.80;99.90
7844;DHT22;3967;48.702;9.326;2023-03-26T06:37:10;7.90;99.90
7844;DHT22;3967;48.702;9.326;2023-03-26T06:39:37;8.00;99.90
7844;DHT22;3967;48.702;9.326;2023-03-26T06:42:04;8.20;99.90
7844;DHT22;3967;48.702;9.326;2023-03-26T06:44:31;8.30;99.90
7844;DHT22;3967;48.702;9.326;2023-03-26T06:46:57;8.20;99.90
7844;DHT22;3967;48.702;9.326;2023-03-26T06:49:24;8.20;99.90
7844;DHT22;3967;48.702;9.326;2023-03-26T06:51:51;8.30;99.90
7844;DHT22;3967;48.702;9.326;2023-03-26T06:54:17;8.30;99.90
7844;DHT22;3967;48.702;9.326;2023-03-26T06:56:44;8.30;99.90
7844;DHT22;3967;48.702;9.326;2023-03-26T06:59:11;8.30;99.90
7844;DHT22;3967;48.702;9.326;2023-03-26T07:01:38;8.40;99.90
7844;DHT22;3967;48.702;9.326;2023-03-26T07:04:05;8.40;99.90
7844;DHT22;3967;48.702;9.326;2023-03-26T07:06:32;8.40;99.90
7844;DHT22;3967;48.702;9.326;2023-03-26T07:08:59;8.50;99.90
7844;DHT22;3967;48.702;9.326;2023-03-26T07:11:25;8.40;99.90
7844;DHT22;3967;48.702;9.326;2023-03-26T07:13:52;8.50;99.90
7844;DHT22;3967;48.702;9.326;2023-03-26T07:16:21;8.50;99.90
7844;DHT22;3967;48.702;9.326;2023-03-26T07:18:48;8.30;99.90
7844;DHT22;3967;48.702;9.326;2023-03-26T07:21:15;8.30;99.90
7844;DHT22;3967;48.702;9.326;2023-03-26T07:23:42;8.40;99.90
7844;DHT22;3967;48.702;9.326;2023-03-26T07:26:33;8.50;99.90
7844;DHT22;3967;48.702;9.326;2023-03-26T07:43:17;8.50;99.90
7844;DHT22;3967;48.702;9.326;2023-03-26T07:45:46;8.50;99.90
7844;DHT22;3967;48.702;9.326;2023-03-26T07:48:17;8.40;99.90
7844;DHT22;3967;48.702;9.326;2023-03-26T07:50:45;8.30;99.90
7844;DHT22;3967;48.702;9.326;2023-03-26T07:53:12;8.40;99.90
7844;DHT22;3967;48.702;9.326;2023-03-26T07:56:18;8.40;99.90
7844;DHT22;3967;48.702;9.326;2023-03-26T08:07:32;8.40;99.90
7844;DHT22;3967;48.702;9.326;2023-03-26T08:10:05;8.40;99.90
7844;DHT22;3967;48.702;9.326;2023-03-26T08:18:35;8.70;99.90
7844;DHT22;3967;48.702;9.326;2023-03-26T08:23:50;8.80;99.90
7844;DHT22;3967;48.702;9.326;2023-03-26T08:31:43;8.60;99.90
7844;DHT22;3967;48.702;9.326;2023-03-26T08:34:12;8.50;99.90
7844;DHT22;3967;48.702;9.326;2023-03-26T08:36:39;8.50;99.90
7844;DHT22;3967;48.702;9.326;2023-03-26T08:39:06;8.60;99.90
7844;DHT22;3967;48.702;9.326;2023-03-26T08:47:35;8.60;99.90
7844;DHT22;3967;48.702;9.326;2023-03-26T08:50:31;8.60;99.90
7844;DHT22;3967;48.702;9.326;2023-03-26T08:55:54;8.50;99.90
7844;DHT22;3967;48.702;9.326;2023-03-26T09:18:23;8.80;99.90
7844;DHT22;3967;48.702;9.326;2023-03-26T09:20:39;8.80;99.90
7844;DHT22;3967;48.702;9.326;2023-03-26T09:40:51;9.70;99.90
7844;DHT22;3967;48.702;9.326;2023-03-26T09:44:30;10.00;99.90
7844;DHT22;3967;48.702;9.326;2023-03-26T09:46:27;10.10;99.90
7844;DHT22;3967;48.702;9.326;2023-03-26T09:57:24;10.80;99.90
7844;DHT22;3967;48.702;9.326;2023-03-26T10:03:07;11.00;99.90
7844;DHT22;3967;48.702;9.326;2023-03-26T10:08:26;11.50;99.90
7844;DHT22;3967;48.702;9.326;2023-03-26T10:14:18;11.80;99.90
7844;DHT22;3967;48.702;9.326;2023-03-26T10:16:50;11.70;99.90
7844;DHT22;3967;48.702;9.326;2023-03-26T10:28:23;11.50;99.90
7844;DHT22;3967;48.702;9.326;2023-03-26T10:30:55;11.70;99.90
7844;DHT22;3967;48.702;9.326;2023-03-26T10:36:38;12.20;99.90
7844;DHT22;3967;48.702;9.326;2023-03-26T10:39:49;12.60;99.90
7844;DHT22;3967;48.702;9.326;2023-03-26T10:42:32;12.80;99.90
7844;DHT22;3967;48.702;9.326;2023-03-26T10:45:32;13.10;98.10
7844;DHT22;3967;48.702;9.326;2023-03-26T10:48:23;12.90;95.80
7844;DHT22;3967;48.702;9.326;2023-03-26T10:53:55;13.20;94.90
7844;DHT22;3967;48.702;9.326;2023-03-26T10:56:45;13.00;92.90
7844;DHT22;3967;48.702;9.326;2023-03-26T10:59:16;12.90;92.40
7844;DHT22;3967;48.702;9.326;2023-03-26T11:07:20;13.20;90.30
7844;DHT22;3967;48.702;9.326;2023-03-26T11:21:32;13.30;84.00
7844;DHT22;3967;48.702;9.326;2023-03-26T11:29:22;13.70;83.80
7844;DHT22;3967;48.702;9.326;2023-03-26T11:32:10;13.90;84.10
7844;DHT22;3967;48.702;9.326;2023-03-26T11:37:42;13.80;82.90
7844;DHT22;3967;48.702;9.326;2023-03-26T11:40:24;13.70;83.90
7844;DHT22;3967;48.702;9.326;2023-03-26T11:43:15;13.80;81.90
7844;DHT22;3967;48.702;9.326;2023-03-26T11:45:45;14.00;81.30
7844;DHT22;3967;48.702;9.326;2023-03-26T11:48:17;13.80;80.20
7844;DHT22;3967;48.702;9.326;2023-03-26T11:50:50;13.70;81.90
7844;DHT22;3967;48.702;9.326;2023-03-26T11:53:21;14.00;82.10
7844;DHT22;3967;48.702;9.326;2023-03-26T11:56:00;13.80;81.50
7844;DHT22;3967;48.702;9.326;2023-03-26T11:58:34;13.90;81.30
7844;DHT22;3967;48.702;9.326;2023-03-26T12:01:12;14.00;82.20
7844;DHT22;3967;48.702;9.326;2023-03-26T12:03:40;14.20;80.20
7844;DHT22;3967;48.702;9.326;2023-03-26T12:06:23;14.20;79.60
7844;DHT22;3967;48.702;9.326;2023-03-26T12:08:53;14.20;78.50
7844;DHT22;3967;48.702;9.326;2023-03-26T12:11:24;14.30;78.00
7844;DHT22;3967;48.702;9.326;2023-03-26T12:13:59;14.40;76.90
7844;DHT22;3967;48.702;9.326;2023-03-26T12:16:27;14.50;75.20
7844;DHT22;3967;48.702;9.326;2023-03-26T12:19:16;14.30;72.60
7844;DHT22;3967;48.702;9.326;2023-03-26T12:21:49;14.20;72.80
7844;DHT22;3967;48.702;9.326;2023-03-26T12:24:33;14.40;74.10
7844;DHT22;3967;48.702;9.326;2023-03-26T12:27:23;14.30;73.70
7844;DHT22;3967;48.702;9.326;2023-03-26T12:29:51;14.40;73.20
7844;DHT22;3967;48.702;9.326;2023-03-26T12:32:20;14.50;74.30
7844;DHT22;3967;48.702;9.326;2023-03-26T12:34:51;14.40;71.90
7844;DHT22;3967;48.702;9.326;2023-03-26T12:37:36;14.40;74.10
7844;DHT22;3967;48.702;9.326;2023-03-26T12:42:54;15.10;73.80
7844;DHT22;3967;48.702;9.326;2023-03-26T12:45:42;14.80;68.70
7844;DHT22;3967;48.702;9.326;2023-03-26T12:48:12;14.50;65.60
7844;DHT22;3967;48.702;9.326;2023-03-26T12:56:15;14.40;66.40
7844;DHT22;3967;48.702;9.326;2023-03-26T12:59:07;14.70;67.70
7844;DHT22;3967;48.702;9.326;2023-03-26T13:07:24;15.00;63.10
7844;DHT22;3967;48.702;9.326;2023-03-26T13:15:47;14.90;63.40
7844;DHT22;3967;48.702;9.326;2023-03-26T13:21:19;15.00;63.10
7844;DHT22;3967;48.702;9.326;2023-03-26T13:29:28;15.00;60.20
7844;DHT22;3967;48.702;9.326;2023-03-26T13:40:50;15.10;56.80
7844;DHT22;3967;48.702;9.326;2023-03-26T13:46:37;15.00;58.10
7844;DHT22;3967;48.702;9.326;2023-03-26T13:49:26;15.10;56.20
7844;DHT22;3967;48.702;9.326;2023-03-26T13:54:29;15.00;56.80
7844;DHT22;3967;48.702;9.326;2023-03-26T13:57:28;15.10;57.20
7844;DHT22;3967;48.702;9.326;2023-03-26T14:02:36;14.80;58.20
7844;DHT22;3967;48.702;9.326;2023-03-26T14:07:45;15.00;59.10
7844;DHT22;3967;48.702;9.326;2023-03-26T14:10:27;15.00;58.00
7844;DHT22;3967;48.702;9.326;2023-03-26T14:13:18;15.00;58.50
7844;DHT22;3967;48.702;9.326;2023-03-26T14:15:56;14.90;59.20
7844;DHT22;3967;48.702;9.326;2023-03-26T14:23:55;14.30;64.20
7844;DHT22;3967;48.702;9.326;2023-03-26T14:35:27;13.50;67.10
7844;DHT22;3967;48.702;9.326;2023-03-26T14:38:22;13.40;71.80
7844;DHT22;3967;48.702;9.326;2023-03-26T14:41:05;13.20;76.20
7844;DHT22;3967;48.702;9.326;2023-03-26T14:46:40;12.10;83.10
7844;DHT22;3967;48.702;9.326;2023-03-26T14:49:31;11.70;85.60
7844;DHT22;3967;48.702;9.326;2023-03-26T14:52:51;11.50;87.00
7844;DHT22;3967;48.702;9.326;2023-03-26T14:55:03;11.40;88.30
7844;DHT22;3967;48.702;9.326;2023-03-26T15:03:25;11.20;93.60
7844;DHT22;3967;48.702;9.326;2023-03-26T15:14:21;11.60;93.40
7844;DHT22;3967;48.702;9.326;2023-03-26T15:17:21;11.70;93.50
7844;DHT22;3967;48.702;9.326;2023-03-26T15:40:27;11.30;92.40
7844;DHT22;3967;48.702;9.326;2023-03-26T15:54:19;10.70;94.80
7844;DHT22;3967;48.702;9.326;2023-03-26T16:02:27;10.00;94.90
7844;DHT22;3967;48.702;9.326;2023-03-26T16:05:00;10.10;95.30
7844;DHT22;3967;48.702;9.326;2023-03-26T16:10:57;10.40;94.90
7844;DHT22;3967;48.702;9.326;2023-03-26T16:13:37;10.10;94.90
7844;DHT22;3967;48.702;9.326;2023-03-26T16:21:33;10.00;95.90
7844;DHT22;3967;48.702;9.326;2023-03-26T16:29:24;10.30;95.90
7844;DHT22;3967;48.702;9.326;2023-03-26T16:32:13;10.20;94.80
7844;DHT22;3967;48.702;9.326;2023-03-26T16:34:51;10.20;95.40
7844;DHT22;3967;48.702;9.326;2023-03-26T16:48:21;9.60;95.60
7844;DHT22;3967;48.702;9.326;2023-03-26T16:53:54;9.50;95.40
7844;DHT22;3967;48.702;9.326;2023-03-26T16:56:27;9.40;95.70
7844;DHT22;3967;48.702;9.326;2023-03-26T16:59:07;9.30;95.60
7844;DHT22;3967;48.702;9.326;2023-03-26T17:01:45;9.20;95.60
7844;DHT22;3967;48.702;9.326;2023-03-26T17:04:22;9.20;95.70
7844;DHT22;3967;48.702;9.326;2023-03-26T17:06:59;9.10;95.70
7844;DHT22;3967;48.702;9.326;2023-03-26T17:12:26;9.20;96.20
7844;DHT22;3967;48.702;9.326;2023-03-26T17:18:08;9.30;95.60
7844;DHT22;3967;48.702;9.326;2023-03-26T17:23:50;9.30;95.40
7844;DHT22;3967;48.702;9.326;2023-03-26T17:26:41;9.20;95.20
7844;DHT22;3967;48.702;9.326;2023-03-26T17:29:50;9.20;95.60
7844;DHT22;3967;48.702;9.326;2023-03-26T17:32:23;9.30;95.20
7844;DHT22;3967;48.702;9.326;2023-03-26T17:34:54;9.40;95.60
7844;DHT22;3967;48.702;9.326;2023-03-26T17:37:34;9.40;95.30
7844;DHT22;3967;48.702;9.326;2023-03-26T17:42:37;9.30;95.50
7844;DHT22;3967;48.702;9.326;2023-03-26T17:45:13;9.10;95.70
7844;DHT22;3967;48.702;9.326;2023-03-26T17:47:50;9.10;96.00
7844;DHT22;3967;48.702;9.326;2023-03-26T17:50:26;9.00;96.50
7844;DHT22;3967;48.702;9.326;2023-03-26T17:53:06;8.90;96.70
7844;DHT22;3967;48.702;9.326;2023-03-26T17:55:39;8.90;97.10
7844;DHT22;3967;48.702;9.326;2023-03-26T17:58:27;9.10;97.30
7844;DHT22;3967;48.702;9.326;2023-03-26T18:04:05;8.90;97.10
7844;DHT22;3967;48.702;9.326;2023-03-26T18:15:25;9.00;97.30
7844;DHT22;3967;48.702;9.326;2023-03-26T18:20:47;8.70;97.40
7844;DHT22;3967;48.702;9.326;2023-03-26T18:28:44;8.70;97.50
7844;DHT22;3967;48.702;9.326;2023-03-26T18:31:18;8.70;97.50
7844;DHT22;3967;48.702;9.326;2023-03-26T18:33:54;8.80;97.50
7844;DHT22;3967;48.702;9.326;2023-03-26T18:36:24;8.80;97.30
7844;DHT22;3967;48.702;9.326;2023-03-26T18:38:56;9.00;97.50
7844;DHT22;3967;48.702;9.326;2023-03-26T18:44:01;9.00;96.70
7844;DHT22;3967;48.702;9.326;2023-03-26T18:46:31;8.90;97.20
7844;DHT22;3967;48.702;9.326;2023-03-26T18:49:00;8.80;97.20
7844;DHT22;3967;48.702;9.326;2023-03-26T18:51:30;8.80;97.50
7844;DHT22;3967;48.702;9.326;2023-03-26T18:53:59;8.70;97.20
7844;DHT22;3967;48.702;9.326;2023-03-26T18:56:35;8.70;97.40
7844;DHT22;3967;48.702;9.326;2023-03-26T18:59:27;8.70;97.20
7844;DHT22;3967;48.702;9.326;2023-03-26T19:01:55;8.70;97.10
7844;DHT22;3967;48.702;9.326;2023-03-26T19:04:27;8.70;96.90
7844;DHT22;3967;48.702;9.326;2023-03-26T19:06:58;8.70;96.80
7844;DHT22;3967;48.702;9.326;2023-03-26T19:09:26;8.70;96.80
7844;DHT22;3967;48.702;9.326;2023-03-26T19:12:17;8.70;97.10
7844;DHT22;3967;48.702;9.326;2023-03-26T19:15:06;8.60;96.90
7844;DHT22;3967;48.702;9.326;2023-03-26T19:17:43;8.70;97.30
7844;DHT22;3967;48.702;9.326;2023-03-26T19:20:24;8.80;97.00
7844;DHT22;3967;48.702;9.326;2023-03-26T19:22:52;8.80;96.70
7844;DHT22;3967;48.702;9.326;2023-03-26T19:25:53;8.80;97.00
7844;DHT22;3967;48.702;9.326;2023-03-26T19:28:38;8.60;96.80
7844;DHT22;3967;48.702;9.326;2023-03-26T19:31:15;8.60;97.60
7844;DHT22;3967;48.702;9.326;2023-03-26T19:33:55;8.60;97.30
7844;DHT22;3967;48.702;9.326;2023-03-26T19:36:25;8.70;97.50
7844;DHT22;3967;48.702;9.326;2023-03-26T19:41:34;8.90;97.00
7844;DHT22;3967;48.702;9.326;2023-03-26T19:44:13;8.70;97.40
7844;DHT22;3967;48.702;9.326;2023-03-26T19:46:44;8.80;97.80
7844;DHT22;3967;48.702;9.326;2023-03-26T19:49:28;8.80;98.00
7844;DHT22;3967;48.702;9.326;2023-03-26T19:52:26;9.00;98.00
7844;DHT22;3967;48.702;9.326;2023-03-26T19:57:28;8.90;98.10
7844;DHT22;3967;48.702;9.326;2023-03-26T19:59:55;8.70;98.90
7844;DHT22;3967;48.702;9.326;2023-03-26T20:02:22;8.70;99.20
7844;DHT22;3967;48.702;9.326;2023-03-26T20:04:50;8.60;99.00
7844;DHT22;3967;48.702;9.326;2023-03-26T20:07:23;8.40;99.50
7844;DHT22;3967;48.702;9.326;2023-03-26T20:10:03;8.50;99.90
7844;DHT22;3967;48.702;9.326;2023-03-26T20:12:31;8.50;99.60
7844;DHT22;3967;48.702;9.326;2023-03-26T20:14:59;8.60;99.70
7844;DHT22;3967;48.702;9.326;2023-03-26T20:17:26;8.50;99.10
7844;DHT22;3967;48.702;9.326;2023-03-26T20:19:56;8.40;99.20
7844;DHT22;3967;48.702;9.326;2023-03-26T20:22:23;8.30;99.40
7844;DHT22;3967;48.702;9.326;2023-03-26T20:24:50;8.30;99.20
7844;DHT22;3967;48.702;9.326;2023-03-26T20:27:17;8.30;99.00
7844;DHT22;3967;48.702;9.326;2023-03-26T20:29:44;8.20;98.80
7844;DHT22;3967;48.702;9.326;2023-03-26T20:32:20;8.20;99.10
7844;DHT22;3967;48.702;9.326;2023-03-26T20:34:50;8.30;99.10
7844;DHT22;3967;48.702;9.326;2023-03-26T20:37:18;8.40;98.20
7844;DHT22;3967;48.702;9.326;2023-03-26T20:39:45;8.40;97.70
7844;DHT22;3967;48.702;9.326;2023-03-26T20:42:12;8.40;97.30
7844;DHT22;3967;48.702;9.326;2023-03-26T20:44:41;8.50;97.10
7844;DHT22;3967;48.702;9.326;2023-03-26T20:47:09;8.50;96.90
7844;DHT22;3967;48.702;9.326;2023-03-26T20:49:37;8.50;96.50
7844;DHT22;3967;48.702;9.326;2023-03-26T20:52:04;8.40;96.30
7844;DHT22;3967;48.702;9.326;2023-03-26T20:54:31;8.40;96.40
7844;DHT22;3967;48.702;9.326;2023-03-26T20:56:58;8.40;96.70
7844;DHT22;3967;48.702;9.326;2023-03-26T20:59:26;8.30;96.30
7844;DHT22;3967;48.702;9.326;2023-03-26T21:01:56;8.30;96.40
7844;DHT22;3967;48.702;9.326;2023-03-26T21:04:25;8.30;96.30
7844;DHT22;3967;48.702;9.326;2023-03-26T21:06:52;8.20;96.30
7844;DHT22;3967;48.702;9.326;2023-03-26T21:09:29;8.40;96.50
7844;DHT22;3967;48.702;9.326;2023-03-26T21:12:06;8.30;96.40
7844;DHT22;3967;48.702;9.326;2023-03-26T21:14:39;8.30;96.20
7844;DHT22;3967;48.702;9.326;2023-03-26T21:17:16;8.40;96.00
7844;DHT22;3967;48.702;9.326;2023-03-26T21:19:44;8.50;95.70
7844;DHT22;3967;48.702;9.326;2023-03-26T21:28:33;8.30;96.30
7844;DHT22;3967;48.702;9.326;2023-03-26T21:31:17;8.30;96.40
7844;DHT22;3967;48.702;9.326;2023-03-26T21:33:45;8.30;96.70
7844;DHT22;3967;48.702;9.326;2023-03-26T21:36:14;8.30;97.10
7844;DHT22;3967;48.702;9.326;2023-03-26T21:38:42;8.20;96.80
7844;DHT22;3967;48.702;9.326;2023-03-26T21:43:49;8.00;97.90
7844;DHT22;3967;48.702;9.326;2023-03-26T21:46:17;7.90;98.20
7844;DHT22;3967;48.702;9.326;2023-03-26T21:48:44;8.00;98.60
7844;DHT22;3967;48.702;9.326;2023-03-26T21:51:11;8.20;98.80
7844;DHT22;3967;48.702;9.326;2023-03-26T21:53:41;8.10;99.40
7844;DHT22;3967;48.702;9.326;2023-03-26T22:05:19;8.10;99.90
7844;DHT22;3967;48.702;9.326;2023-03-26T22:10:23;8.10;99.90
7844;DHT22;3967;48.702;9.326;2023-03-26T22:12:50;8.10;99.90
7844;DHT22;3967;48.702;9.326;2023-03-26T22:15:17;8.10;99.90
7844;DHT22;3967;48.702;9.326;2023-03-26T22:17:45;8.30;99.90
7844;DHT22;3967;48.702;9.326;2023-03-26T22:20:20;8.30;99.90
7844;DHT22;3967;48.702;9.326;2023-03-26T22:22:50;8.20;99.90
7844;DHT22;3967;48.702;9.326;2023-03-26T22:25:19;8.10;99.90
7844;DHT22;3967;48.702;9.326;2023-03-26T22:27:48;8.10;99.90
7844;DHT22;3967;48.702;9.326;2023-03-26T22:30:15;8.20;99.90
7844;DHT22;3967;48.702;9.326;2023-03-26T22:32:42;8.00;99.90
7844;DHT22;3967;48.702;9.326;2023-03-26T22:35:10;8.00;99.90
7844;DHT22;3967;48.702;9.326;2023-03-26T22:37:38;7.90;99.90
7844;DHT22;3967;48.702;9.326;2023-03-26T22:40:06;7.80;99.90
7844;DHT22;3967;48.702;9.326;2023-03-26T22:42:39;7.80;99.90
7844;DHT22;3967;48.702;9.326;2023-03-26T22:45:07;7.80;99.90
7844;DHT22;3967;48.702;9.326;2023-03-26T22:47:34;7.80;99.90
7844;DHT22;3967;48.702;9.326;2023-03-26T22:50:02;7.70;99.90
7844;DHT22;3967;48.702;9.326;2023-03-26T22:52:30;7.60;99.90
7844;DHT22;3967;48.702;9.326;2023-03-26T22:54:56;7.60;99.90
7844;DHT22;3967;48.702;9.326;2023-03-26T22:57:23;7.70;99.90
7844;DHT22;3967;48.702;9.326;2023-03-26T22:59:50;7.80;99.90
7844;DHT22;3967;48.702;9.326;2023-03-26T23:02:17;7.70;99.90
7844;DHT22;3967;48.702;9.326;2023-03-26T23:04:44;7.80;99.90
7844;DHT22;3967;48.702;9.326;2023-03-26T23:07:13;7.90;99.90